createdAt,value
2023-02-08T00:01:20.290Z,101811.34
2023-02-08T00:03:47.870Z,101808.69
2023-02-08T00:06:15.190Z,101817.69
2023-02-08T00:08:42.326Z,101814.97
2023-02-08T00:11:12.410Z,101826.34
2023-02-08T00:13:41.976Z,101826.37
2023-02-08T00:16:09.966Z,101823.16
2023-02-08T00:18:37.177Z,101829.63
2023-02-08T00:21:08.463Z,101828.72
2023-02-08T00:23:36.079Z,101829.50
2023-02-08T00:26:03.297Z,101832.19
2023-02-08T00:28:30.497Z,101831.62
2023-02-08T00:30:58.127Z,101833.09
2023-02-08T00:33:25.465Z,101834.56
2023-02-08T00:35:58.191Z,101836.13
2023-02-08T00:38:25.720Z,101836.22
2023-02-08T00:40:52.919Z,101838.16
2023-02-08T00:43:20.096Z,101835.91
2023-02-08T00:45:47.513Z,101840.00
2023-02-08T00:48:14.712Z,101830.25
2023-02-08T00:50:42.045Z,101833.28
2023-02-08T00:53:09.553Z,101839.03
2023-02-08T00:55:36.715Z,101839.09
2023-02-08T00:58:04.607Z,101839.78
2023-02-08T01:00:32.069Z,101843.22
2023-02-08T01:02:59.302Z,101836.25
2023-02-08T01:05:26.466Z,101840.84
2023-02-08T01:07:53.939Z,101838.38
2023-02-08T01:10:21.181Z,101829.53
2023-02-08T01:12:48.432Z,101826.00
2023-02-08T01:15:15.843Z,101826.59
2023-02-08T01:17:43.108Z,101826.53
2023-02-08T01:20:10.693Z,101827.47
2023-02-08T01:22:38.127Z,101823.56
2023-02-08T01:25:05.351Z,101819.47
2023-02-08T01:27:32.668Z,101821.06
2023-02-08T01:30:00.113Z,101823.84
2023-02-08T01:32:28.609Z,101817.28
2023-02-08T01:34:55.734Z,101824.38
2023-02-08T01:37:23.137Z,101819.56
2023-02-08T01:39:50.304Z,101825.53
2023-02-08T01:42:18.997Z,101834.88
2023-02-08T01:45:01.719Z,101828.78
2023-02-08T01:47:28.899Z,101834.31
2023-02-08T01:49:56.322Z,101827.19
2023-02-08T01:52:25.343Z,101827.50
2023-02-08T01:55:12.708Z,101832.00
2023-02-08T01:57:40.181Z,101830.53
2023-02-08T02:00:08.775Z,101830.28
2023-02-08T02:02:41.028Z,101836.78
2023-02-08T02:05:08.664Z,101829.87
2023-02-08T02:07:36.057Z,101821.69
2023-02-08T02:10:06.166Z,101827.47
2023-02-08T02:12:33.571Z,101826.25
2023-02-08T02:15:01.637Z,101820.97
2023-02-08T02:17:30.148Z,101833.16
2023-02-08T02:20:20.390Z,101834.00
2023-02-08T02:23:06.893Z,101835.59
2023-02-08T02:26:06.600Z,101822.41
2023-02-08T02:28:53.001Z,101824.44
2023-02-08T02:31:22.385Z,101817.34
2023-02-08T02:33:58.741Z,101821.94
2023-02-08T02:36:33.173Z,101812.25
2023-02-08T02:39:07.568Z,101822.09
2023-02-08T02:42:02.183Z,101819.19
2023-02-08T02:44:38.799Z,101822.50
2023-02-08T02:47:09.350Z,101817.56
2023-02-08T02:49:44.091Z,101820.50
2023-02-08T02:52:11.881Z,101829.78
2023-02-08T02:54:44.985Z,101830.66
2023-02-08T02:57:12.806Z,101828.75
2023-02-08T02:59:40.290Z,101836.28
2023-02-08T03:02:07.462Z,101837.09
2023-02-08T03:04:34.742Z,101844.03
2023-02-08T03:07:11.250Z,101843.16
2023-02-08T03:09:52.995Z,101841.69
2023-02-08T03:12:26.352Z,101850.06
2023-02-08T03:14:53.611Z,101855.78
2023-02-08T03:17:39.820Z,101856.25
2023-02-08T03:20:26.135Z,101857.19
2023-02-08T03:22:59.302Z,101867.63
2023-02-08T03:25:33.529Z,101864.22
2023-02-08T03:28:00.946Z,101863.72
2023-02-08T03:30:30.797Z,101865.88
2023-02-08T03:33:03.258Z,101870.41
2023-02-08T03:35:38.461Z,101873.44
2023-02-08T03:38:09.787Z,101863.63
2023-02-08T03:40:38.425Z,101865.69
2023-02-08T03:43:10.456Z,101864.84
2023-02-08T03:45:39.845Z,101868.94
2023-02-08T03:48:08.894Z,101871.38
2023-02-08T03:50:36.571Z,101878.16
2023-02-08T03:53:04.123Z,101877.56
2023-02-08T03:55:32.048Z,101881.09
2023-02-08T03:57:59.414Z,101888.31
2023-02-08T04:00:26.806Z,101883.84
2023-02-08T04:02:56.191Z,101884.78
2023-02-08T04:05:24.092Z,101876.69
2023-02-08T04:07:51.592Z,101874.88
2023-02-08T04:10:19.186Z,101878.06
2023-02-08T04:12:46.620Z,101878.63
2023-02-08T04:15:13.772Z,101882.31
2023-02-08T04:17:41.403Z,101882.28
2023-02-08T04:20:08.665Z,101881.91
2023-02-08T04:22:35.965Z,101882.75
2023-02-08T04:25:03.618Z,101881.28
2023-02-08T04:27:30.773Z,101886.66
2023-02-08T04:29:57.888Z,101884.94
2023-02-08T04:32:25.320Z,101887.19
2023-02-08T04:34:52.457Z,101884.63
2023-02-08T04:37:19.605Z,101880.41
2023-02-08T04:39:47.178Z,101867.75
2023-02-08T04:42:14.308Z,101867.34
2023-02-08T04:44:41.484Z,101864.16
2023-02-08T04:47:08.920Z,101865.50
2023-02-08T04:49:36.065Z,101873.47
2023-02-08T04:52:03.277Z,101873.78
2023-02-08T04:54:30.720Z,101878.84
2023-02-08T04:56:57.839Z,101882.47
2023-02-08T04:59:25.042Z,101877.03
2023-02-08T05:01:52.563Z,101877.75
2023-02-08T05:04:19.704Z,101878.19
2023-02-08T05:06:48.407Z,101875.50
2023-02-08T05:09:15.980Z,101873.84
2023-02-08T05:11:43.153Z,101875.16
2023-02-08T05:14:10.345Z,101880.03
2023-02-08T05:16:37.801Z,101880.66
2023-02-08T05:19:04.952Z,101886.19
2023-02-08T05:21:32.175Z,101892.00
2023-02-08T05:23:59.594Z,101899.09
2023-02-08T05:26:26.827Z,101902.22
2023-02-08T05:28:54.025Z,101904.31
2023-02-08T05:31:22.843Z,101904.13
2023-02-08T05:33:50.787Z,101912.81
2023-02-08T05:36:18.164Z,101904.59
2023-02-08T05:38:45.833Z,101909.53
2023-02-08T05:41:12.958Z,101906.78
2023-02-08T05:43:40.107Z,101904.81
2023-02-08T05:46:07.841Z,101895.25
2023-02-08T05:48:35.038Z,101900.66
2023-02-08T05:51:02.224Z,101904.41
2023-02-08T05:53:29.791Z,101915.59
2023-02-08T05:55:59.938Z,101907.69
2023-02-08T05:58:27.297Z,101897.47
2023-02-08T06:00:54.704Z,101890.81
2023-02-08T06:03:22.216Z,101884.00
2023-02-08T06:05:49.637Z,101900.34
2023-02-08T06:08:16.756Z,101900.87
2023-02-08T06:10:45.909Z,101906.03
2023-02-08T06:13:13.101Z,101915.59
2023-02-08T06:15:40.432Z,101920.66
2023-02-08T06:18:09.209Z,101922.28
2023-02-08T06:20:36.529Z,101929.31
2023-02-08T06:23:03.788Z,101927.56
2023-02-08T06:25:31.284Z,101925.47
2023-02-08T06:27:58.558Z,101934.00
2023-02-08T06:30:25.769Z,101926.94
2023-02-08T06:32:53.175Z,101937.44
2023-02-08T06:35:20.360Z,101931.69
2023-02-08T06:37:47.491Z,101937.03
2023-02-08T06:40:14.895Z,101929.53
2023-02-08T06:42:43.094Z,101935.69
2023-02-08T06:45:12.625Z,101932.47
2023-02-08T06:47:40.937Z,101935.03
2023-02-08T06:50:08.387Z,101942.06
2023-02-08T06:52:35.552Z,101944.25
2023-02-08T06:55:02.984Z,101950.19
2023-02-08T06:57:30.195Z,101947.41
2023-02-08T06:59:57.511Z,101948.78
2023-02-08T07:02:25.035Z,101949.41
2023-02-08T07:04:52.278Z,101952.16
2023-02-08T07:07:19.393Z,101954.19
2023-02-08T07:09:46.934Z,101958.09
2023-02-08T07:12:14.161Z,101956.06
2023-02-08T07:14:42.585Z,101958.44
2023-02-08T07:17:10.633Z,101959.53
2023-02-08T07:19:37.781Z,101965.50
2023-02-08T07:22:08.207Z,101960.25
2023-02-08T07:24:40.740Z,101964.44
2023-02-08T07:27:08.351Z,101973.88
2023-02-08T07:29:36.051Z,101970.13
2023-02-08T07:32:03.917Z,101979.16
2023-02-08T07:34:31.785Z,101973.25
2023-02-08T07:36:59.301Z,101978.44
2023-02-08T07:39:26.506Z,101981.03
2023-02-08T07:41:53.690Z,101980.97
2023-02-08T07:44:22.650Z,101980.69
2023-02-08T07:46:49.932Z,101982.13
2023-02-08T07:49:17.088Z,101995.72
2023-02-08T07:51:44.526Z,101989.28
2023-02-08T07:54:11.695Z,101991.44
2023-02-08T07:56:38.865Z,101992.44
2023-02-08T07:59:06.677Z,101996.78
2023-02-08T08:01:33.899Z,101998.56
2023-02-08T08:04:01.375Z,101997.75
2023-02-08T08:06:28.551Z,102004.62
2023-02-08T08:08:55.723Z,102004.72
2023-02-08T08:11:23.211Z,102005.22
2023-02-08T08:13:50.522Z,102008.72
2023-02-08T08:16:18.138Z,102013.97
2023-02-08T08:18:45.661Z,102018.88
2023-02-08T08:21:12.845Z,102020.63
2023-02-08T08:23:40.833Z,102019.16
2023-02-08T08:26:09.290Z,102015.59
2023-02-08T08:28:36.808Z,102033.44
2023-02-08T08:31:04.119Z,102025.91
2023-02-08T08:33:31.643Z,102025.25
2023-02-08T08:35:58.833Z,102023.59
2023-02-08T08:38:26.045Z,102032.91
2023-02-08T08:40:53.459Z,102026.22
2023-02-08T08:43:20.651Z,102034.72
2023-02-08T08:45:49.200Z,102028.62
2023-02-08T08:48:17.111Z,102034.13
2023-02-08T08:50:44.304Z,102032.97
2023-02-08T08:53:11.485Z,102033.41
2023-02-08T08:55:38.874Z,102030.47
2023-02-08T08:58:06.125Z,102031.16
2023-02-08T09:00:33.261Z,102037.47
2023-02-08T09:03:00.738Z,102042.63
2023-02-08T09:05:27.957Z,102041.19
2023-02-08T09:07:55.165Z,102043.56
2023-02-08T09:10:22.642Z,102050.13
2023-02-08T09:12:49.880Z,102052.16
2023-02-08T09:15:17.239Z,102049.12
2023-02-08T09:17:44.739Z,102060.91
2023-02-08T09:20:11.883Z,102058.59
2023-02-08T09:22:39.096Z,102063.50
2023-02-08T09:25:07.710Z,102070.63
2023-02-08T09:27:35.101Z,102065.38
2023-02-08T09:30:02.362Z,102071.44
2023-02-08T09:32:34.190Z,102067.00
2023-02-08T09:35:02.436Z,102067.16
2023-02-08T09:37:30.186Z,102075.16
2023-02-08T09:40:00.046Z,102068.16
2023-02-08T09:42:27.192Z,102070.63
2023-02-08T09:45:07.158Z,102068.78
2023-02-08T09:47:44.814Z,102063.47
2023-02-08T09:50:28.203Z,102064.72
2023-02-08T09:52:59.638Z,102066.72
2023-02-08T09:55:32.447Z,102065.78
2023-02-08T09:57:59.746Z,102067.31
2023-02-08T10:00:39.299Z,102069.59
2023-02-08T10:03:06.793Z,102067.75
2023-02-08T10:05:35.713Z,102062.09
2023-02-08T10:08:02.977Z,102061.72
2023-02-08T10:10:37.901Z,102064.31
2023-02-08T10:13:13.875Z,102071.94
2023-02-08T10:15:43.001Z,102069.53
2023-02-08T10:18:19.346Z,102074.91
2023-02-08T10:21:05.453Z,102070.37
2023-02-08T10:23:32.665Z,102065.03
2023-02-08T10:26:18.639Z,102061.50
2023-02-08T10:28:50.442Z,102071.69
2023-02-08T10:31:22.539Z,102066.31
2023-02-08T10:33:52.204Z,102069.22
2023-02-08T10:36:21.029Z,102066.59
2023-02-08T10:38:57.144Z,102065.25
2023-02-08T10:41:37.816Z,102059.44
2023-02-08T10:44:14.528Z,102049.88
2023-02-08T10:46:47.951Z,102060.75
2023-02-08T10:49:21.447Z,102053.72
2023-02-08T10:51:50.864Z,102064.06
2023-02-08T10:54:19.385Z,102060.75
2023-02-08T10:56:52.253Z,102053.16
2023-02-08T10:59:21.219Z,102053.09
2023-02-08T11:01:58.296Z,102049.69
2023-02-08T11:04:31.765Z,102052.16
2023-02-08T11:06:59.110Z,102052.03
2023-02-08T11:09:26.756Z,102052.16
2023-02-08T11:11:56.090Z,102045.41
2023-02-08T11:14:27.141Z,102050.84
2023-02-08T11:17:05.625Z,102041.69
2023-02-08T11:19:39.948Z,102065.62
2023-02-08T11:22:08.875Z,102065.13
2023-02-08T11:24:43.923Z,102061.09
2023-02-08T11:27:33.391Z,102062.50
2023-02-08T11:30:14.027Z,102064.34
2023-02-08T11:32:44.766Z,102066.63
2023-02-08T11:35:29.408Z,102058.13
2023-02-08T11:38:05.003Z,102057.69
2023-02-08T11:40:35.065Z,102050.81
2023-02-08T11:43:03.801Z,102046.34
2023-02-08T11:45:40.978Z,102046.41
2023-02-08T11:48:14.621Z,102040.94
2023-02-08T11:50:41.816Z,102036.09
2023-02-08T11:53:21.276Z,102037.66
2023-02-08T11:55:55.763Z,102037.00
2023-02-08T11:58:24.723Z,102038.28
2023-02-08T12:01:18.404Z,102033.75
2023-02-08T12:03:48.097Z,102036.84
2023-02-08T12:06:24.245Z,102036.25
2023-02-08T12:09:14.546Z,102036.69
2023-02-08T12:11:43.217Z,102037.53
2023-02-08T12:14:22.829Z,102028.53
2023-02-08T12:16:52.959Z,102031.28
2023-02-08T12:19:40.185Z,102021.47
2023-02-08T12:22:11.406Z,102019.69
2023-02-08T12:24:57.876Z,102025.78
2023-02-08T12:27:37.517Z,102030.63
2023-02-08T12:30:11.710Z,102041.94
2023-02-08T12:32:45.869Z,102038.81
2023-02-08T12:35:17.437Z,102034.72
2023-02-08T12:38:10.406Z,102035.69
2023-02-08T12:40:50.787Z,102034.56
2023-02-08T12:43:20.970Z,102032.47
2023-02-08T12:45:57.289Z,102027.25
2023-02-08T12:48:31.108Z,102027.28
2023-02-08T12:51:04.775Z,102026.25
2023-02-08T12:53:33.826Z,102024.50
2023-02-08T12:56:02.671Z,102018.59
2023-02-08T12:58:35.218Z,102018.62
2023-02-08T13:01:09.593Z,102016.69
2023-02-08T13:03:39.812Z,102015.84
2023-02-08T13:06:07.907Z,102021.28
2023-02-08T13:08:55.814Z,102015.53
2023-02-08T13:11:23.188Z,102010.13
2023-02-08T13:14:10.833Z,102010.75
2023-02-08T13:16:40.331Z,102009.66
2023-02-08T13:19:07.451Z,102013.53
2023-02-08T13:21:38.123Z,102017.50
2023-02-08T13:24:06.754Z,102019.56
2023-02-08T13:26:34.687Z,102032.16
2023-02-08T13:29:02.532Z,102025.41
2023-02-08T13:31:31.867Z,102019.16
2023-02-08T13:34:08.318Z,102029.69
2023-02-08T13:36:36.733Z,102023.37
2023-02-08T13:39:05.851Z,102030.69
2023-02-08T13:41:33.475Z,102023.41
2023-02-08T13:44:01.599Z,102022.78
2023-02-08T13:46:29.444Z,102018.28
2023-02-08T13:48:57.467Z,102013.22
2023-02-08T13:51:30.741Z,102022.87
2023-02-08T13:53:57.974Z,102022.84
2023-02-08T13:56:37.531Z,102018.38
2023-02-08T13:59:05.944Z,102011.84
2023-02-08T14:01:34.674Z,102009.69
2023-02-08T14:04:08.166Z,102012.72
2023-02-08T14:06:36.351Z,102008.12
2023-02-08T14:09:12.475Z,102011.06
2023-02-08T14:11:45.592Z,102008.94
2023-02-08T14:14:15.041Z,101995.84
2023-02-08T14:16:42.621Z,102000.22
2023-02-08T14:19:15.988Z,102010.50
2023-02-08T14:21:47.095Z,102010.94
2023-02-08T14:24:34.495Z,102006.28
2023-02-08T14:27:17.152Z,102014.72
2023-02-08T14:29:44.405Z,102007.88
2023-02-08T14:32:22.072Z,102008.53
2023-02-08T14:34:49.210Z,102004.00
2023-02-08T14:37:20.494Z,102018.81
2023-02-08T14:39:50.561Z,102007.88
2023-02-08T14:42:37.946Z,102008.59
2023-02-08T14:45:05.613Z,102013.19
2023-02-08T14:47:35.337Z,102006.37
2023-02-08T14:50:14.175Z,102006.25
2023-02-08T14:52:43.212Z,102010.09
2023-02-08T14:55:15.342Z,102011.38
2023-02-08T14:57:42.804Z,102007.53
2023-02-08T15:00:17.605Z,102004.38
2023-02-08T15:02:45.575Z,102002.66
2023-02-08T15:05:22.977Z,102004.13
2023-02-08T15:08:08.699Z,102003.28
2023-02-08T15:10:36.318Z,102011.38
2023-02-08T15:13:06.495Z,102009.84
2023-02-08T15:15:39.955Z,102015.59
2023-02-08T15:18:07.707Z,102016.78
2023-02-08T15:20:35.101Z,102019.31
2023-02-08T15:23:06.311Z,102023.88
2023-02-08T15:25:34.749Z,102024.78
2023-02-08T15:28:20.788Z,102022.56
2023-02-08T15:31:09.256Z,102021.53
2023-02-08T15:33:39.883Z,102022.12
2023-02-08T15:36:24.667Z,102023.75
2023-02-08T15:38:51.971Z,102027.84
2023-02-08T15:41:29.644Z,102026.25
2023-02-08T15:44:12.927Z,102029.75
2023-02-08T15:46:41.805Z,102025.72
2023-02-08T15:49:11.879Z,102025.00
2023-02-08T15:51:39.001Z,102040.03
2023-02-08T15:54:08.535Z,102026.31
2023-02-08T15:56:39.537Z,102032.41
2023-02-08T15:59:08.919Z,102022.63
2023-02-08T16:01:36.236Z,102032.34
2023-02-08T16:04:12.252Z,102024.34
2023-02-08T16:06:40.705Z,102027.53
2023-02-08T16:09:13.471Z,102030.41
2023-02-08T16:11:40.691Z,102039.59
2023-02-08T16:14:08.374Z,102038.12
2023-02-08T16:16:35.554Z,102037.91
2023-02-08T16:19:22.952Z,102040.34
2023-02-08T16:21:50.864Z,102045.34
2023-02-08T16:24:19.965Z,102044.09
2023-02-08T16:26:58.045Z,102048.75
2023-02-08T16:29:25.558Z,102044.28
2023-02-08T16:31:57.552Z,102058.41
2023-02-08T16:34:24.854Z,102051.66
2023-02-08T16:36:52.350Z,102061.16
2023-02-08T16:39:39.445Z,102058.69
2023-02-08T16:42:15.915Z,102065.09
2023-02-08T16:44:57.147Z,102067.87
2023-02-08T16:47:25.654Z,102064.19
2023-02-08T16:49:52.775Z,102072.69
2023-02-08T16:52:20.078Z,102065.97
2023-02-08T16:54:47.631Z,102076.66
2023-02-08T16:57:14.899Z,102068.03
2023-02-08T16:59:42.292Z,102076.19
2023-02-08T17:02:11.252Z,102077.09
2023-02-08T17:04:38.755Z,102079.75
2023-02-08T17:07:06.054Z,102084.88
2023-02-08T17:09:33.783Z,102088.84
2023-02-08T17:12:01.299Z,102082.84
2023-02-08T17:14:28.484Z,102079.78
2023-02-08T17:16:55.951Z,102086.78
2023-02-08T17:19:23.160Z,102084.34
2023-02-08T17:21:50.339Z,102082.97
2023-02-08T17:24:17.818Z,102081.22
2023-02-08T17:26:45.234Z,102078.84
2023-02-08T17:29:12.866Z,102085.53
2023-02-08T17:31:41.177Z,102076.34
2023-02-08T17:34:08.559Z,102084.34
2023-02-08T17:36:36.198Z,102086.75
2023-02-08T17:39:05.228Z,102085.78
2023-02-08T17:41:33.570Z,102089.69
2023-02-08T17:44:00.845Z,102095.94
2023-02-08T17:46:30.598Z,102089.22
2023-02-08T17:49:01.480Z,102086.81
2023-02-08T17:51:29.252Z,102091.91
2023-02-08T17:53:57.108Z,102098.03
2023-02-08T17:56:25.712Z,102094.03
2023-02-08T17:58:54.470Z,102100.38
2023-02-08T18:01:22.813Z,102093.25
2023-02-08T18:03:51.692Z,102097.72
2023-02-08T18:06:19.175Z,102096.00
2023-02-08T18:08:46.553Z,102092.66
2023-02-08T18:11:19.565Z,102095.34
2023-02-08T18:13:47.605Z,102098.09
2023-02-08T18:16:16.615Z,102098.19
2023-02-08T18:18:44.225Z,102100.22
2023-02-08T18:21:12.240Z,102094.03
2023-02-08T18:23:40.113Z,102093.75
2023-02-08T18:26:08.332Z,102099.47
2023-02-08T18:28:37.191Z,102103.25
2023-02-08T18:31:10.185Z,102098.09
2023-02-08T18:33:37.696Z,102097.84
2023-02-08T18:36:06.362Z,102103.41
2023-02-08T18:38:33.697Z,102108.16
2023-02-08T18:41:01.758Z,102105.47
2023-02-08T18:43:29.326Z,102108.16
2023-02-08T18:46:00.419Z,102118.50
2023-02-08T18:48:27.760Z,102116.62
2023-02-08T18:50:56.640Z,102114.91
2023-02-08T18:53:24.936Z,102113.50
2023-02-08T18:55:52.966Z,102111.84
2023-02-08T18:58:20.914Z,102111.00
2023-02-08T19:00:48.507Z,102108.97
2023-02-08T19:03:16.362Z,102111.53
2023-02-08T19:05:44.450Z,102112.47
2023-02-08T19:08:12.476Z,102115.56
2023-02-08T19:10:40.115Z,102118.91
2023-02-08T19:13:07.941Z,102114.53
2023-02-08T19:15:36.566Z,102115.34
2023-02-08T19:18:04.325Z,102115.78
2023-02-08T19:20:34.344Z,102114.94
2023-02-08T19:23:03.228Z,102122.00
2023-02-08T19:25:30.656Z,102114.97
2023-02-08T19:27:58.742Z,102117.84
2023-02-08T19:30:26.036Z,102114.16
2023-02-08T19:32:53.377Z,102118.78
2023-02-08T19:35:21.938Z,102108.63
2023-02-08T19:37:51.363Z,102110.47
2023-02-08T19:40:19.013Z,102110.63
2023-02-08T19:42:46.772Z,102111.53
2023-02-08T19:45:14.301Z,102117.06
2023-02-08T19:47:51.036Z,102118.13
2023-02-08T19:50:18.977Z,102111.16
2023-02-08T19:52:46.360Z,102122.38
2023-02-08T19:55:13.725Z,102117.41
2023-02-08T19:57:41.299Z,102126.38
2023-02-08T20:00:22.612Z,102112.09
2023-02-08T20:02:51.362Z,102114.09
2023-02-08T20:05:18.696Z,102113.19
2023-02-08T20:07:45.907Z,102118.56
2023-02-08T20:10:13.529Z,102118.91
2023-02-08T20:12:40.899Z,102118.16
2023-02-08T20:15:08.434Z,102117.00
2023-02-08T20:17:36.213Z,102124.03
2023-02-08T20:20:03.700Z,102124.94
2023-02-08T20:22:31.111Z,102127.09
2023-02-08T20:24:58.697Z,102136.53
2023-02-08T20:27:30.816Z,102120.00
2023-02-08T20:29:58.373Z,102127.34
2023-02-08T20:32:25.988Z,102126.03
2023-02-08T20:34:59.482Z,102126.62
2023-02-08T20:37:27.691Z,102125.06
2023-02-08T20:39:55.017Z,102122.34
2023-02-08T20:42:22.611Z,102129.88
2023-02-08T20:44:50.478Z,102128.22
2023-02-08T20:47:21.846Z,102125.44
2023-02-08T20:49:49.380Z,102126.91
2023-02-08T20:52:17.807Z,102135.69
2023-02-08T20:54:46.005Z,102133.84
2023-02-08T20:57:18.221Z,102134.22
2023-02-08T20:59:46.026Z,102130.56
2023-02-08T21:02:17.343Z,102135.06
2023-02-08T21:04:44.619Z,102135.13
2023-02-08T21:07:12.345Z,102138.41
2023-02-08T21:09:39.632Z,102142.28
2023-02-08T21:12:06.863Z,102130.69
2023-02-08T21:14:34.477Z,102124.47
2023-02-08T21:17:01.843Z,102132.63
2023-02-08T21:19:29.656Z,102131.22
2023-02-08T21:21:58.651Z,102137.41
2023-02-08T21:24:26.160Z,102133.75
2023-02-08T21:26:53.844Z,102131.31
2023-02-08T21:29:21.442Z,102133.34
2023-02-08T21:31:54.109Z,102129.22
2023-02-08T21:34:22.052Z,102129.22
2023-02-08T21:36:49.318Z,102129.75
2023-02-08T21:39:16.631Z,102124.63
2023-02-08T21:41:44.281Z,102128.16
2023-02-08T21:44:11.607Z,102118.59
2023-02-08T21:46:38.975Z,102116.00
2023-02-08T21:49:25.341Z,102109.81
2023-02-08T21:52:11.176Z,102114.25
2023-02-08T21:54:41.593Z,102109.28
2023-02-08T21:57:10.095Z,102108.34
2023-02-08T21:59:37.802Z,102111.06
2023-02-08T22:02:05.954Z,102114.47
2023-02-08T22:04:34.102Z,102111.19
2023-02-08T22:07:01.842Z,102114.69
2023-02-08T22:09:29.250Z,102108.25
2023-02-08T22:11:59.579Z,102120.69
2023-02-08T22:14:26.818Z,102118.37
2023-02-08T22:16:54.018Z,102117.63
2023-02-08T22:19:21.478Z,102116.56
2023-02-08T22:21:48.711Z,102115.72
2023-02-08T22:24:15.867Z,102111.56
2023-02-08T22:26:43.931Z,102117.84
2023-02-08T22:29:11.288Z,102120.47
2023-02-08T22:31:38.573Z,102112.44
2023-02-08T22:34:06.087Z,102108.78
2023-02-08T22:36:33.342Z,102114.13
2023-02-08T22:39:00.539Z,102114.97
2023-02-08T22:41:28.012Z,102111.44
2023-02-08T22:43:55.297Z,102118.25
2023-02-08T22:46:22.505Z,102116.50
2023-02-08T22:48:50.108Z,102109.50
2023-02-08T22:51:18.024Z,102107.63
2023-02-08T22:53:45.190Z,102111.19
2023-02-08T22:56:15.998Z,102105.91
2023-02-08T22:58:43.248Z,102108.66
2023-02-08T23:01:11.446Z,102110.59
2023-02-08T23:03:39.559Z,102107.09
2023-02-08T23:06:07.593Z,102104.22
2023-02-08T23:08:34.923Z,102101.41
2023-02-08T23:11:03.222Z,102106.72
2023-02-08T23:13:30.556Z,102100.72
2023-02-08T23:15:57.932Z,102103.25
2023-02-08T23:18:25.788Z,102094.22
2023-02-08T23:20:54.501Z,102096.06
2023-02-08T23:23:21.861Z,102094.44
2023-02-08T23:25:49.293Z,102094.69
2023-02-08T23:28:16.542Z,102099.25
2023-02-08T23:30:44.070Z,102093.66
2023-02-08T23:33:11.756Z,102094.50
2023-02-08T23:35:39.643Z,102086.34
2023-02-08T23:38:06.810Z,102092.50
2023-02-08T23:40:34.273Z,102088.13
2023-02-08T23:43:01.581Z,102078.34
2023-02-08T23:45:28.755Z,102081.13
2023-02-08T23:47:56.201Z,102077.69
2023-02-08T23:50:23.413Z,102069.28
2023-02-08T23:52:50.573Z,102072.75
2023-02-08T23:55:18.042Z,102074.28
2023-02-08T23:57:45.241Z,102077.00
